sensor_id;sensor_type;location;lat;lon;timestamp;P1;durP1;ratioP1;P2;durP2;ratioP2
51312;SDS011;37397;53.226;10.400;2024-01-27T00:02:24;34.95;;;5.75;;
51312;SDS011;37397;53.226;10.400;2024-01-27T00:04:52;23.80;;;4.93;;
51312;SDS011;37397;53.226;10.400;2024-01-27T00:07:18;27.92;;;4.95;;
51312;SDS011;37397;53.226;10.400;2024-01-27T00:09:45;27.52;;;5.20;;
51312;SDS011;37397;53.226;10.400;2024-01-27T00:12:11;28.35;;;4.68;;
51312;SDS011;37397;53.226;10.400;2024-01-27T00:14:38;23.00;;;5.05;;
51312;SDS011;37397;53.226;10.400;2024-01-27T00:17:05;25.75;;;4.90;;
51312;SDS011;37397;53.226;10.400;2024-01-27T00:19:32;27.08;;;4.65;;
51312;SDS011;37397;53.226;10.400;2024-01-27T00:22:00;33.90;;;6.32;;
51312;SDS011;37397;53.226;10.400;2024-01-27T00:24:26;29.02;;;5.05;;
51312;SDS011;37397;53.226;10.400;2024-01-27T00:26:53;28.33;;;4.93;;
51312;SDS011;37397;53.226;10.400;2024-01-27T00:29:20;25.77;;;5.97;;
51312;SDS011;37397;53.226;10.400;2024-01-27T00:31:47;25.23;;;5.30;;
51312;SDS011;37397;53.226;10.400;2024-01-27T00:34:15;30.27;;;4.82;;
51312;SDS011;37397;53.226;10.400;2024-01-27T00:36:41;34.38;;;5.05;;
51312;SDS011;37397;53.226;10.400;2024-01-27T00:39:15;29.10;;;4.88;;
51312;SDS011;37397;53.226;10.400;2024-01-27T00:41:42;26.90;;;4.95;;
51312;SDS011;37397;53.226;10.400;2024-01-27T00:44:09;30.17;;;5.05;;
51312;SDS011;37397;53.226;10.400;2024-01-27T00:46:36;30.38;;;5.88;;
51312;SDS011;37397;53.226;10.400;2024-01-27T00:49:04;27.90;;;4.65;;
51312;SDS011;37397;53.226;10.400;2024-01-27T00:51:31;30.08;;;5.50;;
51312;SDS011;37397;53.226;10.400;2024-01-27T00:53:58;29.60;;;4.60;;
51312;SDS011;37397;53.226;10.400;2024-01-27T00:56:26;24.55;;;5.93;;
51312;SDS011;37397;53.226;10.400;2024-01-27T00:58:52;31.23;;;5.78;;
51312;SDS011;37397;53.226;10.400;2024-01-27T01:01:19;25.25;;;4.75;;
51312;SDS011;37397;53.226;10.400;2024-01-27T01:03:45;27.13;;;4.97;;
51312;SDS011;37397;53.226;10.400;2024-01-27T01:06:13;35.47;;;6.13;;
51312;SDS011;37397;53.226;10.400;2024-01-27T01:08:42;27.73;;;5.25;;
51312;SDS011;37397;53.226;10.400;2024-01-27T01:11:08;27.90;;;5.22;;
51312;SDS011;37397;53.226;10.400;2024-01-27T01:13:35;28.40;;;5.07;;
51312;SDS011;37397;53.226;10.400;2024-01-27T01:16:02;26.88;;;5.00;;
51312;SDS011;37397;53.226;10.400;2024-01-27T01:18:30;25.05;;;4.93;;
51312;SDS011;37397;53.226;10.400;2024-01-27T01:20:57;28.38;;;5.20;;
51312;SDS011;37397;53.226;10.400;2024-01-27T01:23:23;22.85;;;4.57;;
51312;SDS011;37397;53.226;10.400;2024-01-27T01:25:50;34.67;;;4.93;;
51312;SDS011;37397;53.226;10.400;2024-01-27T01:28:17;29.85;;;4.90;;
51312;SDS011;37397;53.226;10.400;2024-01-27T01:30:43;24.73;;;5.18;;
51312;SDS011;37397;53.226;10.400;2024-01-27T01:33:10;29.17;;;5.93;;
51312;SDS011;37397;53.226;10.400;2024-01-27T01:35:37;34.15;;;5.38;;
51312;SDS011;37397;53.226;10.400;2024-01-27T01:38:04;26.63;;;4.68;;
51312;SDS011;37397;53.226;10.400;2024-01-27T01:40:31;27.00;;;4.78;;
51312;SDS011;37397;53.226;10.400;2024-01-27T01:42:58;28.17;;;5.35;;
51312;SDS011;37397;53.226;10.400;2024-01-27T01:45:25;30.65;;;4.57;;
51312;SDS011;37397;53.226;10.400;2024-01-27T01:47:52;32.05;;;5.85;;
51312;SDS011;37397;53.226;10.400;2024-01-27T01:50:19;30.90;;;4.60;;
51312;SDS011;37397;53.226;10.400;2024-01-27T01:52:47;20.48;;;4.53;;
51312;SDS011;37397;53.226;10.400;2024-01-27T01:55:15;29.63;;;4.47;;
51312;SDS011;37397;53.226;10.400;2024-01-27T01:57:43;29.77;;;5.45;;
51312;SDS011;37397;53.226;10.400;2024-01-27T02:00:10;28.02;;;4.95;;
51312;SDS011;37397;53.226;10.400;2024-01-27T02:02:40;27.33;;;5.05;;
51312;SDS011;37397;53.226;10.400;2024-01-27T02:05:06;23.23;;;4.97;;
51312;SDS011;37397;53.226;10.400;2024-01-27T02:07:35;31.13;;;5.75;;
51312;SDS011;37397;53.226;10.400;2024-01-27T02:10:02;28.73;;;5.15;;
51312;SDS011;37397;53.226;10.400;2024-01-27T02:12:28;19.98;;;3.92;;
51312;SDS011;37397;53.226;10.400;2024-01-27T02:14:55;31.90;;;5.40;;
51312;SDS011;37397;53.226;10.400;2024-01-27T02:17:22;21.33;;;3.97;;
51312;SDS011;37397;53.226;10.400;2024-01-27T02:19:48;24.98;;;5.07;;
51312;SDS011;37397;53.226;10.400;2024-01-27T02:22:15;30.40;;;5.18;;
51312;SDS011;37397;53.226;10.400;2024-01-27T02:24:42;27.17;;;4.22;;
51312;SDS011;37397;53.226;10.400;2024-01-27T02:27:08;30.40;;;5.38;;
51312;SDS011;37397;53.226;10.400;2024-01-27T02:29:35;24.27;;;4.65;;
51312;SDS011;37397;53.226;10.400;2024-01-27T02:32:02;25.70;;;4.82;;
51312;SDS011;37397;53.226;10.400;2024-01-27T02:34:28;26.42;;;4.50;;
51312;SDS011;37397;53.226;10.400;2024-01-27T02:36:55;25.52;;;5.53;;
51312;SDS011;37397;53.226;10.400;2024-01-27T02:39:21;25.20;;;4.78;;
51312;SDS011;37397;53.226;10.400;2024-01-27T02:41:48;26.27;;;4.35;;
51312;SDS011;37397;53.226;10.400;2024-01-27T02:44:15;27.90;;;5.00;;
51312;SDS011;37397;53.226;10.400;2024-01-27T02:46:41;28.88;;;5.07;;
51312;SDS011;37397;53.226;10.400;2024-01-27T02:49:10;27.35;;;5.55;;
51312;SDS011;37397;53.226;10.400;2024-01-27T02:51:36;25.50;;;4.75;;
51312;SDS011;37397;53.226;10.400;2024-01-27T02:54:03;26.60;;;4.90;;
51312;SDS011;37397;53.226;10.400;2024-01-27T02:56:29;22.58;;;5.18;;
51312;SDS011;37397;53.226;10.400;2024-01-27T02:58:56;26.90;;;4.80;;
51312;SDS011;37397;53.226;10.400;2024-01-27T03:01:23;24.65;;;4.40;;
51312;SDS011;37397;53.226;10.400;2024-01-27T03:03:49;23.50;;;4.93;;
51312;SDS011;37397;53.226;10.400;2024-01-27T03:06:16;27.30;;;5.40;;
51312;SDS011;37397;53.226;10.400;2024-01-27T03:08:43;22.50;;;4.85;;
51312;SDS011;37397;53.226;10.400;2024-01-27T03:11:09;28.40;;;5.20;;
51312;SDS011;37397;53.226;10.400;2024-01-27T03:13:36;22.10;;;5.07;;
51312;SDS011;37397;53.226;10.400;2024-01-27T03:16:03;26.55;;;4.97;;
51312;SDS011;37397;53.226;10.400;2024-01-27T03:18:35;28.00;;;4.70;;
51312;SDS011;37397;53.226;10.400;2024-01-27T03:21:03;28.75;;;5.30;;
51312;SDS011;37397;53.226;10.400;2024-01-27T03:23:32;25.30;;;5.10;;
51312;SDS011;37397;53.226;10.400;2024-01-27T03:25:58;32.17;;;4.45;;
51312;SDS011;37397;53.226;10.400;2024-01-27T03:28:25;32.53;;;5.22;;
51312;SDS011;37397;53.226;10.400;2024-01-27T03:30:52;28.77;;;4.15;;
51312;SDS011;37397;53.226;10.400;2024-01-27T03:33:19;21.35;;;4.18;;
51312;SDS011;37397;53.226;10.400;2024-01-27T03:35:45;26.65;;;4.60;;
51312;SDS011;37397;53.226;10.400;2024-01-27T03:38:12;26.90;;;5.45;;
51312;SDS011;37397;53.226;10.400;2024-01-27T03:40:39;27.67;;;4.90;;
51312;SDS011;37397;53.226;10.400;2024-01-27T03:43:06;24.42;;;5.43;;
51312;SDS011;37397;53.226;10.400;2024-01-27T03:45:32;24.52;;;5.15;;
51312;SDS011;37397;53.226;10.400;2024-01-27T03:47:59;27.38;;;4.70;;
51312;SDS011;37397;53.226;10.400;2024-01-27T03:50:26;27.63;;;5.15;;
51312;SDS011;37397;53.226;10.400;2024-01-27T03:52:52;23.67;;;4.25;;
51312;SDS011;37397;53.226;10.400;2024-01-27T03:55:19;29.50;;;4.65;;
51312;SDS011;37397;53.226;10.400;2024-01-27T03:57:45;25.42;;;5.05;;
51312;SDS011;37397;53.226;10.400;2024-01-27T04:00:12;28.75;;;5.00;;
51312;SDS011;37397;53.226;10.400;2024-01-27T04:02:39;30.92;;;5.75;;
51312;SDS011;37397;53.226;10.400;2024-01-27T04:05:06;24.67;;;4.85;;
51312;SDS011;37397;53.226;10.400;2024-01-27T04:07:33;28.00;;;5.45;;
51312;SDS011;37397;53.226;10.400;2024-01-27T04:10:01;33.55;;;4.95;;
51312;SDS011;37397;53.226;10.400;2024-01-27T04:12:28;38.72;;;5.50;;
51312;SDS011;37397;53.226;10.400;2024-01-27T04:14:56;24.90;;;5.28;;
51312;SDS011;37397;53.226;10.400;2024-01-27T04:17:24;25.80;;;5.47;;
51312;SDS011;37397;53.226;10.400;2024-01-27T04:19:50;24.02;;;5.05;;
51312;SDS011;37397;53.226;10.400;2024-01-27T04:22:17;24.80;;;4.75;;
51312;SDS011;37397;53.226;10.400;2024-01-27T04:24:44;24.80;;;4.75;;
51312;SDS011;37397;53.226;10.400;2024-01-27T04:27:11;27.52;;;4.53;;
51312;SDS011;37397;53.226;10.400;2024-01-27T04:29:37;26.33;;;4.97;;
51312;SDS011;37397;53.226;10.400;2024-01-27T04:32:05;28.02;;;4.93;;
51312;SDS011;37397;53.226;10.400;2024-01-27T04:34:31;34.50;;;5.65;;
51312;SDS011;37397;53.226;10.400;2024-01-27T04:36:58;28.83;;;4.50;;
51312;SDS011;37397;53.226;10.400;2024-01-27T04:39:24;32.30;;;5.18;;
51312;SDS011;37397;53.226;10.400;2024-01-27T04:41:51;25.50;;;4.85;;
51312;SDS011;37397;53.226;10.400;2024-01-27T04:44:18;32.85;;;5.30;;
51312;SDS011;37397;53.226;10.400;2024-01-27T04:46:46;23.80;;;4.40;;
51312;SDS011;37397;53.226;10.400;2024-01-27T04:49:14;29.88;;;5.05;;
51312;SDS011;37397;53.226;10.400;2024-01-27T04:51:42;24.15;;;4.97;;
51312;SDS011;37397;53.226;10.400;2024-01-27T04:54:08;28.80;;;4.65;;
51312;SDS011;37397;53.226;10.400;2024-01-27T04:56:36;26.75;;;4.78;;
51312;SDS011;37397;53.226;10.400;2024-01-27T04:59:03;28.40;;;5.30;;
51312;SDS011;37397;53.226;10.400;2024-01-27T05:01:29;29.88;;;5.03;;
51312;SDS011;37397;53.226;10.400;2024-01-27T05:03:56;25.67;;;4.82;;
51312;SDS011;37397;53.226;10.400;2024-01-27T05:06:22;30.15;;;5.43;;
51312;SDS011;37397;53.226;10.400;2024-01-27T05:08:49;30.88;;;5.15;;
51312;SDS011;37397;53.226;10.400;2024-01-27T05:11:25;38.78;;;6.47;;
51312;SDS011;37397;53.226;10.400;2024-01-27T05:13:52;29.50;;;4.75;;
51312;SDS011;37397;53.226;10.400;2024-01-27T05:16:19;27.85;;;5.18;;
51312;SDS011;37397;53.226;10.400;2024-01-27T05:18:45;31.52;;;4.97;;
51312;SDS011;37397;53.226;10.400;2024-01-27T05:21:12;32.80;;;5.65;;
51312;SDS011;37397;53.226;10.400;2024-01-27T05:23:38;35.75;;;5.43;;
51312;SDS011;37397;53.226;10.400;2024-01-27T05:26:05;31.98;;;5.22;;
51312;SDS011;37397;53.226;10.400;2024-01-27T05:28:32;25.40;;;4.90;;
51312;SDS011;37397;53.226;10.400;2024-01-27T05:30:59;34.03;;;5.97;;
51312;SDS011;37397;53.226;10.400;2024-01-27T05:33:26;27.67;;;5.35;;
51312;SDS011;37397;53.226;10.400;2024-01-27T05:35:53;30.50;;;5.03;;
51312;SDS011;37397;53.226;10.400;2024-01-27T05:38:20;30.55;;;5.97;;
51312;SDS011;37397;53.226;10.400;2024-01-27T05:40:46;31.73;;;5.35;;
51312;SDS011;37397;53.226;10.400;2024-01-27T05:43:15;28.55;;;5.78;;
51312;SDS011;37397;53.226;10.400;2024-01-27T05:45:41;25.60;;;5.30;;
51312;SDS011;37397;53.226;10.400;2024-01-27T05:48:08;25.45;;;4.75;;
51312;SDS011;37397;53.226;10.400;2024-01-27T05:50:35;22.77;;;4.63;;
51312;SDS011;37397;53.226;10.400;2024-01-27T05:53:02;22.80;;;3.80;;
51312;SDS011;37397;53.226;10.400;2024-01-27T05:55:29;28.23;;;5.40;;
51312;SDS011;37397;53.226;10.400;2024-01-27T05:57:56;26.08;;;5.30;;
51312;SDS011;37397;53.226;10.400;2024-01-27T06:00:23;25.42;;;5.03;;
51312;SDS011;37397;53.226;10.400;2024-01-27T06:02:50;27.23;;;4.65;;
51312;SDS011;37397;53.226;10.400;2024-01-27T06:05:16;24.75;;;4.43;;
51312;SDS011;37397;53.226;10.400;2024-01-27T06:07:43;30.50;;;5.15;;
51312;SDS011;37397;53.226;10.400;2024-01-27T06:10:11;18.77;;;4.90;;
51312;SDS011;37397;53.226;10.400;2024-01-27T06:12:39;30.05;;;5.93;;
51312;SDS011;37397;53.226;10.400;2024-01-27T06:15:06;26.73;;;6.03;;
51312;SDS011;37397;53.226;10.400;2024-01-27T06:17:35;29.00;;;5.65;;
51312;SDS011;37397;53.226;10.400;2024-01-27T06:20:01;30.25;;;6.30;;
51312;SDS011;37397;53.226;10.400;2024-01-27T06:22:32;30.20;;;6.75;;
51312;SDS011;37397;53.226;10.400;2024-01-27T06:25:00;29.05;;;7.07;;
51312;SDS011;37397;53.226;10.400;2024-01-27T06:27:26;26.45;;;6.93;;
51312;SDS011;37397;53.226;10.400;2024-01-27T06:29:53;28.58;;;6.25;;
51312;SDS011;37397;53.226;10.400;2024-01-27T06:32:19;30.63;;;6.28;;
51312;SDS011;37397;53.226;10.400;2024-01-27T06:34:49;29.80;;;6.22;;
51312;SDS011;37397;53.226;10.400;2024-01-27T06:37:15;31.98;;;7.70;;
51312;SDS011;37397;53.226;10.400;2024-01-27T06:39:46;26.75;;;5.72;;
51312;SDS011;37397;53.226;10.400;2024-01-27T06:42:13;22.60;;;6.07;;
51312;SDS011;37397;53.226;10.400;2024-01-27T06:44:39;25.80;;;7.28;;
51312;SDS011;37397;53.226;10.400;2024-01-27T06:47:06;27.27;;;6.82;;
51312;SDS011;37397;53.226;10.400;2024-01-27T06:49:33;30.20;;;7.03;;
51312;SDS011;37397;53.226;10.400;2024-01-27T06:52:00;22.08;;;5.85;;
51312;SDS011;37397;53.226;10.400;2024-01-27T06:54:26;28.65;;;6.40;;
51312;SDS011;37397;53.226;10.400;2024-01-27T06:56:53;22.23;;;5.63;;
51312;SDS011;37397;53.226;10.400;2024-01-27T06:59:20;31.88;;;6.05;;
51312;SDS011;37397;53.226;10.400;2024-01-27T07:01:49;22.52;;;5.70;;
51312;SDS011;37397;53.226;10.400;2024-01-27T07:04:16;27.70;;;5.70;;
51312;SDS011;37397;53.226;10.400;2024-01-27T07:06:43;33.45;;;6.35;;
51312;SDS011;37397;53.226;10.400;2024-01-27T07:09:10;23.67;;;6.22;;
51312;SDS011;37397;53.226;10.400;2024-01-27T07:11:37;26.60;;;4.78;;
51312;SDS011;37397;53.226;10.400;2024-01-27T07:14:04;23.25;;;5.22;;
51312;SDS011;37397;53.226;10.400;2024-01-27T07:16:32;24.60;;;5.47;;
51312;SDS011;37397;53.226;10.400;2024-01-27T07:19:00;27.67;;;4.80;;
51312;SDS011;37397;53.226;10.400;2024-01-27T07:21:26;22.45;;;4.95;;
51312;SDS011;37397;53.226;10.400;2024-01-27T07:23:55;26.83;;;4.85;;
51312;SDS011;37397;53.226;10.400;2024-01-27T07:26:22;25.25;;;4.65;;
51312;SDS011;37397;53.226;10.400;2024-01-27T07:28:48;27.00;;;4.68;;
51312;SDS011;37397;53.226;10.400;2024-01-27T07:31:15;25.25;;;5.20;;
51312;SDS011;37397;53.226;10.400;2024-01-27T07:33:41;25.17;;;5.05;;
51312;SDS011;37397;53.226;10.400;2024-01-27T07:36:08;22.80;;;5.03;;
51312;SDS011;37397;53.226;10.400;2024-01-27T07:38:34;30.80;;;5.10;;
51312;SDS011;37397;53.226;10.400;2024-01-27T07:41:01;21.25;;;3.80;;
51312;SDS011;37397;53.226;10.400;2024-01-27T07:43:28;18.60;;;3.85;;
51312;SDS011;37397;53.226;10.400;2024-01-27T07:45:55;24.67;;;4.70;;
51312;SDS011;37397;53.226;10.400;2024-01-27T07:48:21;24.73;;;4.85;;
51312;SDS011;37397;53.226;10.400;2024-01-27T07:50:48;20.73;;;5.00;;
51312;SDS011;37397;53.226;10.400;2024-01-27T07:53:16;26.10;;;4.70;;
51312;SDS011;37397;53.226;10.400;2024-01-27T07:55:43;16.83;;;4.10;;
51312;SDS011;37397;53.226;10.400;2024-01-27T07:58:09;26.30;;;4.78;;
51312;SDS011;37397;53.226;10.400;2024-01-27T08:00:36;21.92;;;4.57;;
51312;SDS011;37397;53.226;10.400;2024-01-27T08:03:03;23.55;;;4.63;;
51312;SDS011;37397;53.226;10.400;2024-01-27T08:05:29;23.58;;;4.63;;
51312;SDS011;37397;53.226;10.400;2024-01-27T08:07:56;19.00;;;4.75;;
51312;SDS011;37397;53.226;10.400;2024-01-27T08:10:23;24.63;;;5.05;;
51312;SDS011;37397;53.226;10.400;2024-01-27T08:12:49;22.33;;;4.60;;
51312;SDS011;37397;53.226;10.400;2024-01-27T08:15:16;21.45;;;4.75;;
51312;SDS011;37397;53.226;10.400;2024-01-27T08:17:42;23.08;;;4.55;;
51312;SDS011;37397;53.226;10.400;2024-01-27T08:20:09;22.55;;;4.90;;
51312;SDS011;37397;53.226;10.400;2024-01-27T08:22:36;21.08;;;4.88;;
51312;SDS011;37397;53.226;10.400;2024-01-27T08:25:02;20.95;;;4.80;;
51312;SDS011;37397;53.226;10.400;2024-01-27T08:27:29;26.38;;;4.88;;
51312;SDS011;37397;53.226;10.400;2024-01-27T08:29:56;24.77;;;5.65;;
51312;SDS011;37397;53.226;10.400;2024-01-27T08:32:24;22.38;;;4.57;;
51312;SDS011;37397;53.226;10.400;2024-01-27T08:34:51;26.05;;;5.47;;
51312;SDS011;37397;53.226;10.400;2024-01-27T08:37:18;23.42;;;4.32;;
51312;SDS011;37397;53.226;10.400;2024-01-27T08:39:45;23.73;;;4.85;;
51312;SDS011;37397;53.226;10.400;2024-01-27T08:42:12;19.27;;;4.72;;
51312;SDS011;37397;53.226;10.400;2024-01-27T08:44:39;22.08;;;5.05;;
51312;SDS011;37397;53.226;10.400;2024-01-27T08:47:05;25.40;;;4.85;;
51312;SDS011;37397;53.226;10.400;2024-01-27T08:49:34;22.33;;;4.88;;
51312;SDS011;37397;53.226;10.400;2024-01-27T08:52:00;20.80;;;4.80;;
51312;SDS011;37397;53.226;10.400;2024-01-27T08:54:27;17.40;;;4.13;;
51312;SDS011;37397;53.226;10.400;2024-01-27T08:56:53;20.92;;;4.47;;
51312;SDS011;37397;53.226;10.400;2024-01-27T08:59:20;22.60;;;4.10;;
51312;SDS011;37397;53.226;10.400;2024-01-27T09:01:47;18.50;;;4.18;;
51312;SDS011;37397;53.226;10.400;2024-01-27T09:04:14;16.40;;;3.75;;
51312;SDS011;37397;53.226;10.400;2024-01-27T09:06:40;25.73;;;4.72;;
51312;SDS011;37397;53.226;10.400;2024-01-27T09:09:07;19.13;;;4.43;;
51312;SDS011;37397;53.226;10.400;2024-01-27T09:11:34;18.35;;;4.43;;
51312;SDS011;37397;53.226;10.400;2024-01-27T09:14:01;19.27;;;4.30;;
51312;SDS011;37397;53.226;10.400;2024-01-27T09:16:27;20.92;;;4.65;;
51312;SDS011;37397;53.226;10.400;2024-01-27T09:18:54;23.00;;;4.82;;
51312;SDS011;37397;53.226;10.400;2024-01-27T09:21:21;24.63;;;4.68;;
51312;SDS011;37397;53.226;10.400;2024-01-27T09:23:54;22.02;;;4.63;;
51312;SDS011;37397;53.226;10.400;2024-01-27T09:26:21;20.77;;;4.20;;
51312;SDS011;37397;53.226;10.400;2024-01-27T09:28:49;24.30;;;4.43;;
51312;SDS011;37397;53.226;10.400;2024-01-27T09:31:22;22.88;;;4.47;;
51312;SDS011;37397;53.226;10.400;2024-01-27T09:33:50;19.73;;;4.10;;
51312;SDS011;37397;53.226;10.400;2024-01-27T09:36:19;22.10;;;4.60;;
51312;SDS011;37397;53.226;10.400;2024-01-27T09:38:46;21.00;;;4.35;;
51312;SDS011;37397;53.226;10.400;2024-01-27T09:41:13;26.55;;;4.07;;
51312;SDS011;37397;53.226;10.400;2024-01-27T09:43:43;22.73;;;4.38;;
51312;SDS011;37397;53.226;10.400;2024-01-27T09:46:11;22.15;;;4.35;;
51312;SDS011;37397;53.226;10.400;2024-01-27T09:48:38;17.92;;;3.70;;
51312;SDS011;37397;53.226;10.400;2024-01-27T09:51:06;19.60;;;4.43;;
51312;SDS011;37397;53.226;10.400;2024-01-27T09:53:34;22.63;;;4.65;;
51312;SDS011;37397;53.226;10.400;2024-01-27T09:56:01;25.73;;;4.70;;
51312;SDS011;37397;53.226;10.400;2024-01-27T09:58:30;21.75;;;4.30;;
51312;SDS011;37397;53.226;10.400;2024-01-27T10:00:59;24.92;;;4.55;;
51312;SDS011;37397;53.226;10.400;2024-01-27T10:03:28;22.92;;;4.38;;
51312;SDS011;37397;53.226;10.400;2024-01-27T10:05:56;23.23;;;4.25;;
51312;SDS011;37397;53.226;10.400;2024-01-27T10:08:23;20.05;;;4.43;;
51312;SDS011;37397;53.226;10.400;2024-01-27T10:10:52;21.63;;;4.70;;
51312;SDS011;37397;53.226;10.400;2024-01-27T10:13:21;18.77;;;4.93;;
51312;SDS011;37397;53.226;10.400;2024-01-27T10:16:03;31.77;;;5.65;;
51312;SDS011;37397;53.226;10.400;2024-01-27T10:18:33;25.08;;;4.30;;
51312;SDS011;37397;53.226;10.400;2024-01-27T10:21:11;26.02;;;5.03;;
51312;SDS011;37397;53.226;10.400;2024-01-27T10:23:39;23.10;;;4.18;;
51312;SDS011;37397;53.226;10.400;2024-01-27T10:26:09;20.05;;;4.25;;
51312;SDS011;37397;53.226;10.400;2024-01-27T10:28:36;18.30;;;4.20;;
51312;SDS011;37397;53.226;10.400;2024-01-27T10:31:12;16.20;;;4.65;;
51312;SDS011;37397;53.226;10.400;2024-01-27T10:33:39;17.75;;;4.38;;
51312;SDS011;37397;53.226;10.400;2024-01-27T10:36:06;22.58;;;4.28;;
51312;SDS011;37397;53.226;10.400;2024-01-27T10:38:39;21.92;;;4.50;;
51312;SDS011;37397;53.226;10.400;2024-01-27T10:41:09;19.58;;;4.55;;
51312;SDS011;37397;53.226;10.400;2024-01-27T10:43:37;16.75;;;3.83;;
51312;SDS011;37397;53.226;10.400;2024-01-27T10:46:05;21.63;;;4.47;;
51312;SDS011;37397;53.226;10.400;2024-01-27T10:48:35;14.00;;;3.92;;
51312;SDS011;37397;53.226;10.400;2024-01-27T10:51:06;21.73;;;4.07;;
51312;SDS011;37397;53.226;10.400;2024-01-27T10:53:34;16.05;;;4.05;;
51312;SDS011;37397;53.226;10.400;2024-01-27T10:56:01;23.65;;;4.30;;
51312;SDS011;37397;53.226;10.400;2024-01-27T10:58:34;17.77;;;4.10;;
51312;SDS011;37397;53.226;10.400;2024-01-27T11:01:10;30.48;;;5.82;;
51312;SDS011;37397;53.226;10.400;2024-01-27T11:03:40;17.77;;;3.78;;
51312;SDS011;37397;53.226;10.400;2024-01-27T11:06:08;19.38;;;4.32;;
51312;SDS011;37397;53.226;10.400;2024-01-27T11:08:35;17.95;;;3.85;;
51312;SDS011;37397;53.226;10.400;2024-01-27T11:13:35;15.20;;;3.83;;
51312;SDS011;37397;53.226;10.400;2024-01-27T11:16:04;20.15;;;4.50;;
51312;SDS011;37397;53.226;10.400;2024-01-27T11:18:31;21.35;;;3.83;;
51312;SDS011;37397;53.226;10.400;2024-01-27T11:20:58;20.15;;;4.40;;
51312;SDS011;37397;53.226;10.400;2024-01-27T11:23:32;22.25;;;4.22;;
51312;SDS011;37397;53.226;10.400;2024-01-27T11:26:04;26.90;;;4.10;;
51312;SDS011;37397;53.226;10.400;2024-01-27T11:28:31;21.13;;;4.47;;
51312;SDS011;37397;53.226;10.400;2024-01-27T11:31:02;22.90;;;4.20;;
51312;SDS011;37397;53.226;10.400;2024-01-27T11:33:30;15.32;;;3.90;;
51312;SDS011;37397;53.226;10.400;2024-01-27T11:36:03;28.40;;;4.43;;
51312;SDS011;37397;53.226;10.400;2024-01-27T11:38:31;16.23;;;3.55;;
51312;SDS011;37397;53.226;10.400;2024-01-27T11:41:01;17.05;;;4.85;;
51312;SDS011;37397;53.226;10.400;2024-01-27T11:43:29;19.60;;;4.32;;
51312;SDS011;37397;53.226;10.400;2024-01-27T11:45:59;17.23;;;3.83;;
51312;SDS011;37397;53.226;10.400;2024-01-27T11:48:27;18.83;;;3.88;;
51312;SDS011;37397;53.226;10.400;2024-01-27T11:51:15;19.95;;;4.97;;
51312;SDS011;37397;53.226;10.400;2024-01-27T11:53:41;20.98;;;4.57;;
51312;SDS011;37397;53.226;10.400;2024-01-27T11:56:08;16.52;;;3.85;;
51312;SDS011;37397;53.226;10.400;2024-01-27T11:58:36;18.77;;;4.05;;
51312;SDS011;37397;53.226;10.400;2024-01-27T12:01:02;24.67;;;4.65;;
51312;SDS011;37397;53.226;10.400;2024-01-27T12:03:29;19.00;;;4.35;;
51312;SDS011;37397;53.226;10.400;2024-01-27T12:05:56;19.10;;;4.28;;
51312;SDS011;37397;53.226;10.400;2024-01-27T12:08:23;20.13;;;4.30;;
51312;SDS011;37397;53.226;10.400;2024-01-27T12:10:49;21.05;;;4.43;;
51312;SDS011;37397;53.226;10.400;2024-01-27T12:13:16;15.65;;;4.35;;
51312;SDS011;37397;53.226;10.400;2024-01-27T12:15:43;20.70;;;4.72;;
51312;SDS011;37397;53.226;10.400;2024-01-27T12:18:10;15.60;;;4.22;;
51312;SDS011;37397;53.226;10.400;2024-01-27T12:20:37;18.98;;;4.43;;
51312;SDS011;37397;53.226;10.400;2024-01-27T12:23:07;14.13;;;4.07;;
51312;SDS011;37397;53.226;10.400;2024-01-27T12:25:35;17.45;;;3.65;;
51312;SDS011;37397;53.226;10.400;2024-01-27T12:28:07;20.45;;;3.58;;
51312;SDS011;37397;53.226;10.400;2024-01-27T12:30:35;17.50;;;4.22;;
51312;SDS011;37397;53.226;10.400;2024-01-27T12:33:08;18.55;;;3.75;;
51312;SDS011;37397;53.226;10.400;2024-01-27T12:35:36;18.27;;;3.95;;
51312;SDS011;37397;53.226;10.400;2024-01-27T12:38:02;16.98;;;3.75;;
51312;SDS011;37397;53.226;10.400;2024-01-27T12:40:32;18.73;;;4.43;;
51312;SDS011;37397;53.226;10.400;2024-01-27T12:42:59;15.23;;;3.35;;
51312;SDS011;37397;53.226;10.400;2024-01-27T12:45:25;17.63;;;3.78;;
51312;SDS011;37397;53.226;10.400;2024-01-27T12:47:55;22.33;;;5.03;;
51312;SDS011;37397;53.226;10.400;2024-01-27T12:50:22;16.58;;;3.92;;
51312;SDS011;37397;53.226;10.400;2024-01-27T12:52:49;25.05;;;3.92;;
51312;SDS011;37397;53.226;10.400;2024-01-27T12:55:15;16.70;;;4.93;;
51312;SDS011;37397;53.226;10.400;2024-01-27T12:57:42;24.10;;;4.20;;
51312;SDS011;37397;53.226;10.400;2024-01-27T13:00:10;17.85;;;3.72;;
51312;SDS011;37397;53.226;10.400;2024-01-27T13:02:37;20.15;;;4.22;;
51312;SDS011;37397;53.226;10.400;2024-01-27T13:05:04;18.65;;;3.75;;
51312;SDS011;37397;53.226;10.400;2024-01-27T13:07:31;14.85;;;3.58;;
51312;SDS011;37397;53.226;10.400;2024-01-27T13:09:58;29.48;;;4.50;;
51312;SDS011;37397;53.226;10.400;2024-01-27T13:12:24;21.55;;;4.20;;
51312;SDS011;37397;53.226;10.400;2024-01-27T13:14:51;20.67;;;4.18;;
51312;SDS011;37397;53.226;10.400;2024-01-27T13:17:17;18.20;;;3.83;;
51312;SDS011;37397;53.226;10.400;2024-01-27T13:19:45;18.30;;;4.18;;
51312;SDS011;37397;53.226;10.400;2024-01-27T13:22:12;17.00;;;3.50;;
51312;SDS011;37397;53.226;10.400;2024-01-27T13:24:38;18.88;;;3.88;;
51312;SDS011;37397;53.226;10.400;2024-01-27T13:27:05;16.33;;;3.75;;
51312;SDS011;37397;53.226;10.400;2024-01-27T13:29:34;22.95;;;4.70;;
51312;SDS011;37397;53.226;10.400;2024-01-27T13:32:01;17.85;;;3.90;;
51312;SDS011;37397;53.226;10.400;2024-01-27T13:34:28;24.73;;;4.05;;
51312;SDS011;37397;53.226;10.400;2024-01-27T13:36:57;23.98;;;4.88;;
51312;SDS011;37397;53.226;10.400;2024-01-27T13:39:24;17.88;;;4.25;;
51312;SDS011;37397;53.226;10.400;2024-01-27T13:41:51;24.02;;;4.00;;
51312;SDS011;37397;53.226;10.400;2024-01-27T13:44:17;21.92;;;4.25;;
51312;SDS011;37397;53.226;10.400;2024-01-27T13:46:44;23.88;;;5.00;;
51312;SDS011;37397;53.226;10.400;2024-01-27T13:49:11;18.65;;;3.20;;
51312;SDS011;37397;53.226;10.400;2024-01-27T13:51:38;18.08;;;4.18;;
51312;SDS011;37397;53.226;10.400;2024-01-27T13:54:05;19.45;;;3.95;;
51312;SDS011;37397;53.226;10.400;2024-01-27T13:56:35;20.67;;;4.13;;
51312;SDS011;37397;53.226;10.400;2024-01-27T13:59:01;16.80;;;3.58;;
51312;SDS011;37397;53.226;10.400;2024-01-27T14:01:30;19.77;;;3.97;;
51312;SDS011;37397;53.226;10.400;2024-01-27T14:03:57;24.10;;;4.45;;
51312;SDS011;37397;53.226;10.400;2024-01-27T14:06:24;22.08;;;4.53;;
51312;SDS011;37397;53.226;10.400;2024-01-27T14:08:50;19.52;;;4.10;;
51312;SDS011;37397;53.226;10.400;2024-01-27T14:11:17;16.38;;;3.60;;
51312;SDS011;37397;53.226;10.400;2024-01-27T14:13:45;21.23;;;4.22;;
51312;SDS011;37397;53.226;10.400;2024-01-27T14:16:12;23.58;;;3.85;;
51312;SDS011;37397;53.226;10.400;2024-01-27T14:18:38;20.50;;;4.20;;
51312;SDS011;37397;53.226;10.400;2024-01-27T14:21:05;20.63;;;3.45;;
51312;SDS011;37397;53.226;10.400;2024-01-27T14:23:32;16.20;;;3.65;;
51312;SDS011;37397;53.226;10.400;2024-01-27T14:25:58;22.35;;;4.80;;